createdAt,value
2023-08-19T00:00:19.345Z,10.9
2023-08-19T00:01:19.917Z,11.5
2023-08-19T00:02:19.684Z,11.3
2023-08-19T00:03:19.599Z,11.3
2023-08-19T00:04:19.334Z,10.6
2023-08-19T00:05:19.203Z,10.4
2023-08-19T00:06:38.638Z,10.7
2023-08-19T00:07:19.701Z,10.2
2023-08-19T00:08:20.016Z,10.9
2023-08-19T00:09:19.703Z,12.0
2023-08-19T00:10:20.257Z,11.6
2023-08-19T00:11:19.613Z,10.5
2023-08-19T00:12:19.649Z,11.1
2023-08-19T00:13:19.853Z,10.7
2023-08-19T00:14:19.637Z,12.7
2023-08-19T00:15:19.487Z,11.4
2023-08-19T00:16:19.265Z,10.2
2023-08-19T00:17:19.497Z,10.8
2023-08-19T00:18:19.440Z,10.8
2023-08-19T00:19:20.042Z,10.4
2023-08-19T00:20:19.921Z,9.6
2023-08-19T00:21:19.257Z,9.9
2023-08-19T00:22:19.858Z,11.0
2023-08-19T00:23:23.470Z,10.8
2023-08-19T00:24:19.852Z,10.1
2023-08-19T00:25:19.388Z,10.1
2023-08-19T00:26:19.627Z,10.5
2023-08-19T00:27:19.364Z,10.5
2023-08-19T00:28:19.953Z,10.7
2023-08-19T00:29:20.200Z,11.5
2023-08-19T00:30:20.096Z,11.2
2023-08-19T00:31:19.583Z,11.6
2023-08-19T00:32:19.641Z,11.6
2023-08-19T00:33:19.482Z,11.5
2023-08-19T00:34:19.437Z,10.0
2023-08-19T00:35:19.514Z,10.2
2023-08-19T00:36:19.341Z,10.8
2023-08-19T00:37:19.124Z,10.8
2023-08-19T00:38:19.882Z,10.0
2023-08-19T00:39:19.246Z,10.6
2023-08-19T00:40:19.952Z,9.7
2023-08-19T00:41:21.145Z,11.7
2023-08-19T00:42:19.553Z,10.7
2023-08-19T00:43:19.723Z,10.6
2023-08-19T00:44:19.734Z,9.6
2023-08-19T00:45:19.528Z,10.1
2023-08-19T00:46:19.947Z,10.8
2023-08-19T00:47:19.900Z,10.2
2023-08-19T00:48:19.991Z,11.2
2023-08-19T00:49:19.986Z,10.3
2023-08-19T00:50:20.342Z,10.1
2023-08-19T00:51:19.621Z,10.2
2023-08-19T00:52:19.596Z,10.5
2023-08-19T00:53:19.370Z,9.4
2023-08-19T00:54:20.058Z,10.7
2023-08-19T00:55:20.100Z,10.5
2023-08-19T00:56:20.204Z,11.0
2023-08-19T00:57:19.274Z,10.9
2023-08-19T00:58:20.038Z,10.6
2023-08-19T00:59:19.879Z,11.0
2023-08-19T01:00:19.681Z,10.0
2023-08-19T01:01:19.523Z,10.6
2023-08-19T01:02:19.429Z,10.4
2023-08-19T01:03:19.493Z,10.1
2023-08-19T01:04:19.561Z,9.1
2023-08-19T01:05:20.446Z,10.4
2023-08-19T01:06:25.424Z,10.5
2023-08-19T01:07:30.719Z,10.2
2023-08-19T01:08:23.153Z,9.8
2023-08-19T01:09:42.273Z,10.2
2023-08-19T01:10:24.497Z,10.4
2023-08-19T01:11:24.258Z,10.9
2023-08-19T01:12:24.044Z,9.9
2023-08-19T01:13:22.326Z,10.3
2023-08-19T01:14:33.688Z,10.8
2023-08-19T01:15:24.881Z,10.9
2023-08-19T01:16:24.401Z,11.1
2023-08-19T01:17:23.740Z,10.1
2023-08-19T01:18:20.099Z,10.4
2023-08-19T01:19:23.101Z,9.9
2023-08-19T01:20:19.994Z,9.7
2023-08-19T01:21:19.582Z,10.2
2023-08-19T01:22:23.993Z,10.8
2023-08-19T01:23:24.654Z,10.1
2023-08-19T01:24:20.956Z,10.9
2023-08-19T01:25:20.214Z,10.8
2023-08-19T01:26:19.658Z,10.3
2023-08-19T01:27:23.938Z,10.1
2023-08-19T01:28:19.569Z,10.6
2023-08-19T01:29:19.204Z,10.1
2023-08-19T01:30:19.304Z,9.1
2023-08-19T01:31:19.636Z,10.2
2023-08-19T01:32:20.369Z,10.6
2023-08-19T01:33:19.358Z,10.1
2023-08-19T01:34:19.632Z,9.6
2023-08-19T01:35:19.666Z,9.6
2023-08-19T01:36:24.196Z,9.6
2023-08-19T01:37:24.113Z,8.6
2023-08-19T01:38:24.863Z,9.1
2023-08-19T01:39:22.191Z,9.5
2023-08-19T01:40:20.037Z,10.1
2023-08-19T01:41:21.894Z,9.8
2023-08-19T01:42:21.339Z,10.6
2023-08-19T01:43:19.872Z,9.9
2023-08-19T01:44:20.993Z,10.5
2023-08-19T01:45:19.890Z,9.0
2023-08-19T01:46:19.778Z,10.4
2023-08-19T01:47:19.252Z,10.0
2023-08-19T01:48:19.582Z,10.6
2023-08-19T01:49:20.423Z,11.0
2023-08-19T01:50:19.489Z,9.7
2023-08-19T01:51:20.050Z,9.4
2023-08-19T01:52:19.269Z,9.6
2023-08-19T01:53:19.893Z,10.4
2023-08-19T01:54:19.795Z,10.6
2023-08-19T01:55:19.597Z,9.2
2023-08-19T01:56:19.602Z,10.7
2023-08-19T01:57:19.230Z,9.4
2023-08-19T01:58:19.385Z,9.6
2023-08-19T01:59:19.711Z,9.5
2023-08-19T02:00:20.098Z,9.7
2023-08-19T02:01:19.147Z,9.9
2023-08-19T02:02:19.550Z,10.3
2023-08-19T02:03:19.650Z,9.6
2023-08-19T02:04:19.629Z,9.8
2023-08-19T02:05:19.568Z,9.1
2023-08-19T02:06:19.310Z,9.1
2023-08-19T02:07:20.022Z,9.4
2023-08-19T02:08:19.418Z,10.0
2023-08-19T02:09:19.121Z,9.2
2023-08-19T02:10:19.266Z,9.7
2023-08-19T02:11:19.182Z,9.0
2023-08-19T02:12:19.422Z,9.9
2023-08-19T02:13:19.248Z,9.6
2023-08-19T02:14:19.882Z,9.3
2023-08-19T02:15:19.850Z,10.0
2023-08-19T02:16:20.046Z,9.1
2023-08-19T02:17:19.380Z,9.1
2023-08-19T02:18:21.364Z,10.3
2023-08-19T02:19:19.925Z,9.0
2023-08-19T02:20:19.863Z,9.7
2023-08-19T02:21:19.120Z,10.2
2023-08-19T02:22:19.842Z,10.0
2023-08-19T02:23:19.693Z,9.4
2023-08-19T02:24:19.473Z,10.1
2023-08-19T02:25:19.340Z,9.7
2023-08-19T02:26:19.097Z,9.3
2023-08-19T02:27:19.984Z,10.7
2023-08-19T02:28:19.153Z,9.8
2023-08-19T02:29:19.192Z,10.4
2023-08-19T02:30:19.338Z,10.1
2023-08-19T02:31:19.890Z,9.4
2023-08-19T02:32:19.338Z,10.9
2023-08-19T02:33:19.094Z,9.7
2023-08-19T02:34:19.822Z,8.9
2023-08-19T02:35:19.708Z,8.7
2023-08-19T02:36:19.513Z,9.6
2023-08-19T02:37:19.540Z,9.8
2023-08-19T02:38:20.029Z,8.9
2023-08-19T02:39:19.273Z,9.4
2023-08-19T02:40:19.339Z,10.4
2023-08-19T02:41:19.649Z,9.4
2023-08-19T02:42:19.894Z,9.7
2023-08-19T02:43:19.753Z,9.7
2023-08-19T02:44:19.548Z,9.8
2023-08-19T02:45:20.594Z,9.6
2023-08-19T02:46:19.317Z,9.7
2023-08-19T02:47:19.353Z,9.9
2023-08-19T02:48:19.720Z,9.4
2023-08-19T02:49:19.485Z,9.4
2023-08-19T02:50:19.281Z,9.9
2023-08-19T02:51:20.046Z,9.5
2023-08-19T02:52:20.150Z,8.7
2023-08-19T02:53:19.668Z,10.2
2023-08-19T02:54:19.492Z,9.9
2023-08-19T02:55:19.364Z,10.2
2023-08-19T02:56:19.942Z,9.7
2023-08-19T02:57:19.726Z,8.6
2023-08-19T02:58:19.540Z,9.9
2023-08-19T02:59:19.316Z,9.9
2023-08-19T03:00:19.194Z,9.4
2023-08-19T03:01:20.067Z,9.6
2023-08-19T03:02:19.736Z,9.0
2023-08-19T03:03:19.632Z,8.4
2023-08-19T03:04:19.821Z,9.3
2023-08-19T03:05:19.641Z,9.1
2023-08-19T03:06:19.821Z,9.6
2023-08-19T03:07:19.157Z,9.5
2023-08-19T03:08:19.513Z,8.4
2023-08-19T03:09:19.451Z,9.5
2023-08-19T03:10:19.881Z,9.2
2023-08-19T03:11:19.784Z,9.5
2023-08-19T03:12:19.531Z,9.5
2023-08-19T03:13:19.327Z,9.6
2023-08-19T03:14:19.159Z,9.5
2023-08-19T03:15:19.933Z,10.2
2023-08-19T03:16:19.764Z,9.0
2023-08-19T03:17:19.810Z,10.0
2023-08-19T03:18:19.631Z,10.2
2023-08-19T03:19:19.642Z,9.2
2023-08-19T03:20:19.367Z,9.2
2023-08-19T03:21:19.190Z,9.6
2023-08-19T03:22:19.824Z,8.7
2023-08-19T03:23:19.172Z,9.0
2023-08-19T03:24:19.852Z,8.6
2023-08-19T03:25:19.727Z,9.3
2023-08-19T03:26:20.000Z,8.7
2023-08-19T03:27:19.752Z,8.5
2023-08-19T03:28:19.974Z,8.3
2023-08-19T03:29:19.958Z,9.4
2023-08-19T03:30:19.626Z,9.1
2023-08-19T03:31:19.874Z,8.9
2023-08-19T03:32:19.821Z,8.8
2023-08-19T03:33:19.664Z,9.6
2023-08-19T03:34:19.388Z,9.4
2023-08-19T03:35:19.492Z,9.9
2023-08-19T03:36:19.361Z,8.9
2023-08-19T03:37:19.184Z,9.4
2023-08-19T03:38:19.365Z,9.6
2023-08-19T03:39:19.140Z,9.0
2023-08-19T03:40:19.960Z,8.0
2023-08-19T03:41:19.139Z,7.7
2023-08-19T03:42:19.520Z,9.7
2023-08-19T03:43:19.598Z,9.5
2023-08-19T03:44:19.858Z,8.5
2023-08-19T03:45:19.677Z,9.8
2023-08-19T03:46:19.529Z,8.3
2023-08-19T03:47:19.346Z,9.3
2023-08-19T03:48:19.096Z,9.1
2023-08-19T03:49:19.837Z,8.9
2023-08-19T03:50:19.593Z,8.9
2023-08-19T03:51:19.403Z,9.6
2023-08-19T03:52:19.228Z,8.8
2023-08-19T03:53:19.961Z,9.3
2023-08-19T03:54:19.862Z,9.5
2023-08-19T03:55:20.007Z,9.5
2023-08-19T03:56:19.827Z,8.7
2023-08-19T03:57:19.657Z,8.7
2023-08-19T03:58:19.874Z,8.6
2023-08-19T03:59:19.126Z,9.5
2023-08-19T04:00:19.370Z,9.1
2023-08-19T04:01:19.664Z,9.3
2023-08-19T04:02:19.527Z,8.6
2023-08-19T04:03:19.244Z,8.5
2023-08-19T04:04:20.203Z,8.2
2023-08-19T04:05:19.974Z,8.8
2023-08-19T04:06:19.571Z,8.6
2023-08-19T04:07:19.472Z,8.2
2023-08-19T04:08:19.225Z,9.8
2023-08-19T04:09:19.962Z,8.1
2023-08-19T04:10:19.780Z,9.7
2023-08-19T04:11:19.646Z,8.9
2023-08-19T04:12:19.886Z,9.2
2023-08-19T04:13:19.540Z,8.6
2023-08-19T04:14:19.789Z,8.9
2023-08-19T04:15:19.610Z,8.5
2023-08-19T04:16:19.557Z,9.2
2023-08-19T04:17:19.285Z,8.2
2023-08-19T04:18:19.893Z,8.8
2023-08-19T04:19:19.813Z,9.5
2023-08-19T04:20:19.960Z,9.4
2023-08-19T04:21:19.730Z,8.8
2023-08-19T04:22:20.017Z,8.8
2023-08-19T04:23:19.327Z,9.5
2023-08-19T04:24:19.117Z,8.9
2023-08-19T04:25:19.365Z,9.2
2023-08-19T04:26:19.151Z,8.7
2023-08-19T04:27:19.491Z,8.4
2023-08-19T04:28:19.230Z,7.8
2023-08-19T04:29:19.946Z,8.2
2023-08-19T04:30:19.255Z,9.8
2023-08-19T04:31:19.655Z,9.5
2023-08-19T04:32:19.500Z,9.4
2023-08-19T04:33:19.373Z,8.9
2023-08-19T04:34:19.964Z,8.5
2023-08-19T04:35:24.585Z,9.2
2023-08-19T04:36:19.894Z,9.6
2023-08-19T04:37:19.763Z,9.3
2023-08-19T04:38:19.527Z,9.5
2023-08-19T04:39:19.372Z,9.5
2023-08-19T04:40:19.223Z,8.2
2023-08-19T04:41:19.869Z,9.1
2023-08-19T04:42:19.683Z,8.6
2023-08-19T04:43:19.595Z,8.7
2023-08-19T04:44:19.837Z,9.0
2023-08-19T04:45:19.512Z,8.3
2023-08-19T04:46:19.423Z,9.0
2023-08-19T04:47:19.240Z,9.3
2023-08-19T04:48:19.919Z,9.6
2023-08-19T04:49:19.764Z,8.6
2023-08-19T04:50:19.481Z,8.5
2023-08-19T04:51:19.787Z,8.4
2023-08-19T04:52:19.486Z,8.3
2023-08-19T04:53:19.419Z,8.1
2023-08-19T04:54:19.583Z,7.9
2023-08-19T04:55:19.379Z,7.5
2023-08-19T04:56:19.556Z,8.3
2023-08-19T04:57:19.473Z,9.9
2023-08-19T04:58:19.288Z,9.7
2023-08-19T04:59:19.459Z,9.1
2023-08-19T05:00:19.424Z,8.4
2023-08-19T05:01:19.161Z,9.1
2023-08-19T05:02:19.917Z,9.0
2023-08-19T05:03:19.698Z,8.1
2023-08-19T05:04:19.644Z,8.4
2023-08-19T05:05:19.448Z,8.3
2023-08-19T05:06:19.241Z,7.9
2023-08-19T05:07:19.988Z,8.6
2023-08-19T05:08:19.213Z,9.0
2023-08-19T05:09:19.758Z,9.0
2023-08-19T05:10:19.372Z,9.0
2023-08-19T05:11:19.877Z,8.0
2023-08-19T05:12:19.748Z,8.8
2023-08-19T05:13:19.616Z,8.4
2023-08-19T05:14:19.338Z,8.7
2023-08-19T05:15:19.075Z,8.4
2023-08-19T05:16:19.460Z,8.5
2023-08-19T05:17:19.309Z,8.3
2023-08-19T05:18:19.870Z,8.7
2023-08-19T05:19:20.282Z,9.0
2023-08-19T05:20:20.022Z,9.1
2023-08-19T05:21:19.732Z,8.4
2023-08-19T05:22:19.649Z,8.9
2023-08-19T05:23:19.375Z,8.0
2023-08-19T05:24:19.606Z,8.1
2023-08-19T05:25:19.423Z,8.3
2023-08-19T05:26:19.406Z,8.5
2023-08-19T05:27:19.913Z,9.3
2023-08-19T05:28:19.680Z,8.6
2023-08-19T05:29:19.924Z,8.5
2023-08-19T05:30:19.368Z,8.0
2023-08-19T05:31:19.096Z,8.3
2023-08-19T05:32:20.095Z,8.0
2023-08-19T05:33:19.592Z,9.2
2023-08-19T05:34:19.408Z,9.0
2023-08-19T05:35:19.204Z,8.4
2023-08-19T05:36:20.217Z,8.3
2023-08-19T05:37:20.735Z,9.9
2023-08-19T05:38:19.471Z,9.0
2023-08-19T05:39:19.282Z,8.9
2023-08-19T05:40:19.157Z,7.9
2023-08-19T05:41:19.370Z,8.9
2023-08-19T05:42:19.554Z,8.6
2023-08-19T05:43:19.842Z,8.8
2023-08-19T05:44:19.821Z,9.1
2023-08-19T05:45:19.462Z,8.4
2023-08-19T05:46:19.324Z,7.5
2023-08-19T05:47:19.441Z,8.6
2023-08-19T05:48:19.425Z,8.7
2023-08-19T05:49:19.145Z,8.6
2023-08-19T05:50:19.855Z,8.0
2023-08-19T05:51:19.677Z,7.6
2023-08-19T05:52:19.905Z,7.8
2023-08-19T05:53:19.745Z,7.4
2023-08-19T05:54:19.503Z,8.7
2023-08-19T05:55:19.329Z,8.2
2023-08-19T05:56:19.207Z,8.6
2023-08-19T05:57:19.789Z,8.4
2023-08-19T05:58:19.680Z,8.1
2023-08-19T05:59:19.625Z,8.8
2023-08-19T06:00:19.378Z,8.6
2023-08-19T06:02:19.872Z,8.3
2023-08-19T06:03:19.859Z,8.8
2023-08-19T06:04:19.579Z,8.5
2023-08-19T06:05:19.264Z,7.4
2023-08-19T06:06:19.884Z,8.0
2023-08-19T06:07:19.717Z,8.8
2023-08-19T06:08:19.593Z,7.5
2023-08-19T06:09:19.376Z,7.9
2023-08-19T06:10:19.537Z,7.6
2023-08-19T06:11:19.825Z,8.2
2023-08-19T06:12:19.213Z,7.5
2023-08-19T06:13:19.935Z,8.0
2023-08-19T06:14:19.881Z,7.2
2023-08-19T06:15:19.574Z,8.0
2023-08-19T06:16:19.314Z,7.3
2023-08-19T06:17:19.143Z,7.8
2023-08-19T06:18:19.913Z,6.9
2023-08-19T06:19:19.954Z,6.8
2023-08-19T06:20:19.515Z,7.9
2023-08-19T06:21:19.788Z,7.1
2023-08-19T06:22:19.546Z,7.8
2023-08-19T06:23:19.754Z,7.1
2023-08-19T06:24:19.224Z,7.5
2023-08-19T06:25:19.498Z,7.7
2023-08-19T06:26:19.263Z,7.4
2023-08-19T06:27:19.194Z,6.8
2023-08-19T06:28:21.108Z,7.2
2023-08-19T06:29:19.592Z,6.6
2023-08-19T06:30:19.417Z,6.7
2023-08-19T06:31:21.529Z,7.2
2023-08-19T06:32:19.673Z,7.1
2023-08-19T06:33:19.489Z,7.6
2023-08-19T06:34:20.094Z,7.4
2023-08-19T06:35:19.897Z,7.8
2023-08-19T06:36:22.713Z,7.8
2023-08-19T06:37:20.023Z,8.0
2023-08-19T06:38:20.312Z,6.8
2023-08-19T06:39:25.810Z,7.0
2023-08-19T06:40:21.362Z,7.6
2023-08-19T06:41:20.211Z,7.7
2023-08-19T06:42:20.412Z,7.9
2023-08-19T06:43:20.183Z,7.0
2023-08-19T06:44:20.387Z,7.6
2023-08-19T06:45:20.471Z,8.0
2023-08-19T06:46:19.914Z,6.6
2023-08-19T06:47:23.695Z,7.1
2023-08-19T06:48:21.164Z,6.8
2023-08-19T06:49:19.806Z,7.7
2023-08-19T06:50:20.044Z,8.2
2023-08-19T06:51:19.618Z,8.4
2023-08-19T06:52:20.001Z,8.4
2023-08-19T06:53:19.751Z,8.5
2023-08-19T06:54:19.574Z,8.0
2023-08-19T06:55:19.534Z,8.1
2023-08-19T06:56:39.118Z,8.3
2023-08-19T06:57:28.763Z,9.1
2023-08-19T06:58:23.452Z,8.0
2023-08-19T06:59:24.130Z,8.7
2023-08-19T07:00:21.066Z,8.5
2023-08-19T07:01:23.393Z,7.2
2023-08-19T07:02:20.185Z,9.0
2023-08-19T07:03:20.281Z,8.4
2023-08-19T07:04:20.441Z,9.1
2023-08-19T07:05:20.269Z,8.1
2023-08-19T07:06:20.119Z,9.4
2023-08-19T07:07:19.700Z,9.2
2023-08-19T07:08:20.002Z,8.6
2023-08-19T07:09:21.132Z,8.5
2023-08-19T07:10:21.031Z,9.2
2023-08-19T07:11:20.006Z,8.4
2023-08-19T07:12:19.704Z,9.1
2023-08-19T07:13:19.615Z,8.3
2023-08-19T07:14:19.529Z,9.5
2023-08-19T07:15:20.436Z,8.2
2023-08-19T07:16:21.118Z,8.9
2023-08-19T07:17:22.328Z,8.9
2023-08-19T07:18:20.590Z,8.5
2023-08-19T07:19:24.335Z,8.9
2023-08-19T07:20:21.036Z,8.7
2023-08-19T07:21:20.870Z,9.2
2023-08-19T07:22:20.082Z,7.6
2023-08-19T07:23:21.821Z,8.4
2023-08-19T07:24:19.643Z,8.8
2023-08-19T07:25:19.807Z,8.3
2023-08-19T07:26:19.824Z,9.0
2023-08-19T07:27:20.502Z,7.4
2023-08-19T07:28:20.837Z,9.1
2023-08-19T07:29:19.203Z,8.7
2023-08-19T07:30:20.208Z,8.5
2023-08-19T07:31:20.352Z,8.7
2023-08-19T07:32:20.439Z,9.3
2023-08-19T07:33:19.320Z,8.6
2023-08-19T07:34:19.137Z,8.6
2023-08-19T07:35:19.446Z,8.2
2023-08-19T07:36:19.719Z,8.3
2023-08-19T07:37:19.479Z,7.9
2023-08-19T07:38:19.262Z,8.2
2023-08-19T07:39:20.010Z,9.1
2023-08-19T07:40:19.872Z,9.5
2023-08-19T07:41:19.887Z,9.6
2023-08-19T07:42:19.746Z,8.0
2023-08-19T07:43:19.513Z,8.3
2023-08-19T07:44:19.782Z,8.9
2023-08-19T07:45:19.711Z,8.5
2023-08-19T07:46:19.902Z,8.8
2023-08-19T07:47:19.209Z,9.0
2023-08-19T07:48:19.866Z,9.1
2023-08-19T07:49:19.742Z,8.6
2023-08-19T07:50:19.588Z,9.4
2023-08-19T07:51:19.456Z,8.9
2023-08-19T07:52:19.127Z,8.1
2023-08-19T07:53:19.900Z,8.8
2023-08-19T07:54:19.741Z,8.9
2023-08-19T07:55:20.084Z,8.1
2023-08-19T07:56:19.749Z,9.0
2023-08-19T07:57:19.613Z,8.7
2023-08-19T07:58:19.784Z,8.9
2023-08-19T07:59:19.165Z,9.3
2023-08-19T08:00:20.036Z,9.4
2023-08-19T08:01:19.656Z,8.8
2023-08-19T08:02:19.472Z,8.9
2023-08-19T08:03:19.303Z,9.8
2023-08-19T08:04:19.943Z,8.7
2023-08-19T08:05:20.134Z,9.8
2023-08-19T08:06:19.619Z,9.5
2023-08-19T08:07:19.407Z,9.2
2023-08-19T08:08:19.241Z,9.5
2023-08-19T08:09:20.031Z,8.4
2023-08-19T08:10:19.345Z,9.4
2023-08-19T08:11:20.039Z,9.1
2023-08-19T08:12:19.339Z,9.2
2023-08-19T08:13:19.346Z,8.9
2023-08-19T08:14:19.410Z,8.4
2023-08-19T08:15:19.315Z,9.7
2023-08-19T08:16:19.991Z,9.2
2023-08-19T08:17:19.861Z,9.3
2023-08-19T08:18:19.636Z,9.0
2023-08-19T08:19:19.428Z,9.0
2023-08-19T08:20:19.336Z,9.9
2023-08-19T08:21:19.784Z,10.4
2023-08-19T08:22:19.353Z,8.4
2023-08-19T08:23:19.153Z,9.6
2023-08-19T08:24:19.783Z,8.9
2023-08-19T08:25:19.780Z,9.2
2023-08-19T08:26:19.438Z,11.0
2023-08-19T08:27:19.733Z,9.7
2023-08-19T08:28:19.579Z,9.5
2023-08-19T08:29:19.413Z,9.0
2023-08-19T08:30:19.694Z,9.1
2023-08-19T08:31:19.483Z,9.8
2023-08-19T08:32:19.865Z,10.5
2023-08-19T08:33:19.644Z,9.4
2023-08-19T08:34:19.834Z,9.2
2023-08-19T08:35:19.656Z,9.9
2023-08-19T08:36:19.610Z,8.2
2023-08-19T08:37:20.083Z,9.0
2023-08-19T08:38:22.360Z,9.8
2023-08-19T08:39:19.771Z,10.4
2023-08-19T08:40:19.598Z,9.7
2023-08-19T08:41:19.472Z,8.7
2023-08-19T08:42:19.688Z,9.8
2023-08-19T08:43:20.688Z,10.5
2023-08-19T08:44:20.025Z,10.3
2023-08-19T08:45:20.293Z,9.9
2023-08-19T08:46:19.480Z,9.2
2023-08-19T08:47:20.331Z,9.0
2023-08-19T08:48:19.840Z,9.8
2023-08-19T08:49:19.671Z,10.7
2023-08-19T08:50:20.353Z,10.0
2023-08-19T08:51:19.761Z,9.9
2023-08-19T08:52:20.343Z,10.4
2023-08-19T08:53:19.858Z,10.3
2023-08-19T08:54:21.800Z,10.0
2023-08-19T08:55:19.679Z,10.1
2023-08-19T08:56:19.658Z,9.6
2023-08-19T08:57:22.080Z,10.3
2023-08-19T08:58:19.564Z,9.5
2023-08-19T08:59:19.636Z,10.7
2023-08-19T09:00:19.789Z,10.3
2023-08-19T09:01:20.258Z,10.5
2023-08-19T09:02:20.088Z,10.1
2023-08-19T09:03:25.640Z,10.2
2023-08-19T09:04:20.650Z,9.5
2023-08-19T09:05:19.847Z,10.0
2023-08-19T09:06:20.042Z,10.5
2023-08-19T09:07:24.534Z,10.2
2023-08-19T09:08:23.482Z,9.2
2023-08-19T09:09:20.568Z,10.0
2023-08-19T09:10:23.438Z,9.4
2023-08-19T09:11:21.981Z,10.5
2023-08-19T09:12:20.589Z,10.6
2023-08-19T09:13:21.307Z,9.8
2023-08-19T09:14:24.523Z,10.3
2023-08-19T09:15:19.918Z,10.4
2023-08-19T09:16:19.406Z,9.9
2023-08-19T09:17:19.121Z,9.8
2023-08-19T09:18:20.068Z,9.7
2023-08-19T09:19:19.664Z,10.0
2023-08-19T09:20:19.909Z,9.9
2023-08-19T09:21:19.434Z,9.9
2023-08-19T09:22:22.687Z,9.3
2023-08-19T09:23:19.441Z,11.1
2023-08-19T09:24:19.199Z,10.4
2023-08-19T09:25:19.963Z,9.6
2023-08-19T09:26:19.791Z,11.0
2023-08-19T09:27:25.656Z,10.0
2023-08-19T09:28:19.720Z,10.8
2023-08-19T09:29:19.581Z,9.6
2023-08-19T09:30:19.391Z,10.9
2023-08-19T09:31:20.104Z,10.2
2023-08-19T09:32:33.273Z,10.7
2023-08-19T09:33:19.458Z,10.4
2023-08-19T09:34:19.110Z,10.4
2023-08-19T09:35:20.110Z,11.6
2023-08-19T09:36:22.685Z,10.4
2023-08-19T09:37:23.838Z,9.7
2023-08-19T09:38:20.893Z,10.2
2023-08-19T09:39:19.924Z,10.1
2023-08-19T09:40:21.342Z,9.7
2023-08-19T09:41:19.722Z,10.8
2023-08-19T09:42:21.117Z,9.9
2023-08-19T09:43:19.206Z,9.9
2023-08-19T09:44:19.484Z,10.2
2023-08-19T09:45:20.113Z,9.6
2023-08-19T09:46:19.153Z,9.9
2023-08-19T09:47:19.827Z,11.6
2023-08-19T09:48:21.489Z,10.9
2023-08-19T09:49:22.755Z,9.6
2023-08-19T09:50:20.322Z,9.9
2023-08-19T09:51:25.204Z,10.7
2023-08-19T09:52:19.857Z,10.7
2023-08-19T09:53:19.607Z,10.1
2023-08-19T09:54:19.430Z,9.9
2023-08-19T09:55:22.911Z,10.6
2023-08-19T09:56:26.216Z,9.8
2023-08-19T09:57:24.461Z,9.1
2023-08-19T09:58:19.201Z,10.6
2023-08-19T09:59:19.444Z,10.9
2023-08-19T10:00:19.617Z,10.1
2023-08-19T10:01:19.642Z,10.0
2023-08-19T10:02:19.342Z,10.5
2023-08-19T10:03:19.494Z,9.6
2023-08-19T10:04:20.073Z,11.2
2023-08-19T10:05:19.447Z,10.7
2023-08-19T10:06:25.779Z,9.5
2023-08-19T10:07:22.241Z,10.2
2023-08-19T10:08:22.036Z,10.7
2023-08-19T10:09:22.591Z,9.9
2023-08-19T10:10:20.901Z,10.8
2023-08-19T10:11:19.837Z,11.1
2023-08-19T10:12:21.629Z,10.3
2023-08-19T10:13:22.120Z,10.5
2023-08-19T10:14:24.309Z,11.5
2023-08-19T10:15:20.518Z,10.9
2023-08-19T10:16:21.879Z,12.3
2023-08-19T10:17:20.079Z,9.7
2023-08-19T10:18:21.091Z,9.7
2023-08-19T10:19:20.732Z,10.2
2023-08-19T10:20:21.297Z,11.2
2023-08-19T10:21:21.642Z,11.1
2023-08-19T10:22:19.620Z,10.1
2023-08-19T10:23:20.204Z,11.2
2023-08-19T10:24:20.620Z,11.4
2023-08-19T10:25:20.277Z,10.2
2023-08-19T10:26:19.656Z,10.2
2023-08-19T10:27:20.172Z,10.7
2023-08-19T10:28:25.770Z,10.6
2023-08-19T10:29:19.646Z,10.5
2023-08-19T10:30:28.582Z,11.3
2023-08-19T10:31:24.010Z,10.7
2023-08-19T10:32:29.703Z,11.0
2023-08-19T10:33:29.047Z,10.0
2023-08-19T10:34:24.330Z,10.3
2023-08-19T10:35:19.406Z,10.6
2023-08-19T10:36:19.890Z,11.7
2023-08-19T10:37:24.658Z,11.2
2023-08-19T10:38:19.621Z,11.3
2023-08-19T10:39:19.430Z,10.5
2023-08-19T10:40:23.559Z,11.2
2023-08-19T10:41:27.197Z,10.3
2023-08-19T10:42:24.538Z,10.9
2023-08-19T10:43:19.639Z,11.1
2023-08-19T10:44:23.557Z,11.1
2023-08-19T10:45:19.655Z,10.3
2023-08-19T10:46:23.909Z,11.0
2023-08-19T10:47:19.674Z,9.9
2023-08-19T10:48:27.693Z,11.0
2023-08-19T10:49:19.530Z,10.1
2023-08-19T10:50:19.578Z,10.2
2023-08-19T10:51:19.570Z,10.5
2023-08-19T10:52:19.638Z,10.1
2023-08-19T10:53:22.338Z,11.0
2023-08-19T10:54:38.205Z,11.4
2023-08-19T10:55:19.495Z,11.6
2023-08-19T10:56:19.708Z,10.8
2023-08-19T10:57:22.685Z,10.5
2023-08-19T10:58:20.836Z,11.2
2023-08-19T10:59:19.355Z,9.8
2023-08-19T11:00:23.225Z,10.9
2023-08-19T11:01:19.962Z,11.1
2023-08-19T11:02:20.033Z,10.8
2023-08-19T11:03:19.752Z,11.3
2023-08-19T11:04:20.082Z,10.3
2023-08-19T11:05:25.581Z,11.7
2023-08-19T11:06:19.148Z,10.8
2023-08-19T11:07:20.165Z,11.2
2023-08-19T11:08:19.704Z,10.4
2023-08-19T11:09:19.586Z,11.6
2023-08-19T11:10:19.748Z,10.9
2023-08-19T11:11:19.534Z,10.9
2023-08-19T11:12:20.480Z,10.9
2023-08-19T11:13:19.270Z,11.4
2023-08-19T11:14:20.201Z,10.5
2023-08-19T11:15:23.082Z,11.1
2023-08-19T11:16:24.498Z,10.8
2023-08-19T11:17:24.547Z,10.2
2023-08-19T11:18:20.233Z,10.0
2023-08-19T11:19:19.483Z,11.3
2023-08-19T11:20:19.585Z,10.4
2023-08-19T11:21:19.894Z,10.9
2023-08-19T11:22:19.630Z,10.6
2023-08-19T11:23:24.969Z,11.2
2023-08-19T11:24:27.968Z,10.0
2023-08-19T11:25:19.460Z,10.2
2023-08-19T11:26:19.265Z,11.5
2023-08-19T11:27:20.567Z,10.1
2023-08-19T11:28:19.474Z,10.5
2023-08-19T11:29:19.176Z,10.6
2023-08-19T11:30:20.001Z,11.0
2023-08-19T11:31:19.924Z,12.3
2023-08-19T11:32:19.689Z,10.8
2023-08-19T11:33:19.876Z,10.8
2023-08-19T11:34:19.543Z,10.1
2023-08-19T11:35:19.293Z,9.6
2023-08-19T11:36:23.998Z,10.0
2023-08-19T11:37:19.377Z,10.1
2023-08-19T11:38:19.263Z,10.3
2023-08-19T11:39:19.464Z,11.1
2023-08-19T11:40:29.310Z,10.7
2023-08-19T11:41:19.537Z,11.6
2023-08-19T11:42:19.821Z,11.0
2023-08-19T11:43:22.817Z,10.6
2023-08-19T11:44:20.168Z,10.6
2023-08-19T11:45:19.543Z,10.5
2023-08-19T11:46:20.099Z,10.8
2023-08-19T11:47:19.738Z,10.1
2023-08-19T11:48:19.883Z,10.9
2023-08-19T11:49:19.786Z,10.2
2023-08-19T11:50:19.625Z,10.5
2023-08-19T11:51:22.230Z,11.1
2023-08-19T11:52:20.129Z,10.0
2023-08-19T11:53:25.929Z,10.4
2023-08-19T11:54:21.755Z,10.3
2023-08-19T11:55:19.502Z,10.2
2023-08-19T11:56:19.448Z,10.4
2023-08-19T11:57:19.519Z,10.8
2023-08-19T11:58:19.400Z,9.1
2023-08-19T11:59:24.079Z,10.7
2023-08-19T12:00:26.591Z,11.0
2023-08-19T12:01:22.676Z,10.4
2023-08-19T12:02:19.545Z,10.8
2023-08-19T12:03:19.832Z,10.7
2023-08-19T12:04:19.271Z,10.7
2023-08-19T12:05:23.441Z,11.9
2023-08-19T12:06:19.777Z,10.7
2023-08-19T12:07:24.712Z,10.3
2023-08-19T12:08:28.931Z,10.2
2023-08-19T12:09:19.676Z,11.6
2023-08-19T12:10:19.872Z,10.4
2023-08-19T12:11:24.958Z,11.4
2023-08-19T12:12:19.887Z,10.8
2023-08-19T12:13:22.488Z,10.6
2023-08-19T12:14:19.632Z,10.2
2023-08-19T12:15:19.775Z,11.1
2023-08-19T12:16:19.580Z,11.1
2023-08-19T12:17:19.816Z,9.8
2023-08-19T12:18:21.495Z,10.3
2023-08-19T12:19:19.897Z,11.0
2023-08-19T12:20:19.694Z,10.5
2023-08-19T12:21:19.531Z,11.4
2023-08-19T12:22:19.332Z,11.1
2023-08-19T12:23:19.174Z,10.6
2023-08-19T12:24:19.433Z,11.4
2023-08-19T12:25:19.182Z,10.9
2023-08-19T12:26:20.007Z,10.3
2023-08-19T12:27:19.293Z,10.4
2023-08-19T12:28:19.231Z,11.1
2023-08-19T12:29:19.924Z,10.6
2023-08-19T12:30:19.198Z,10.6
2023-08-19T12:31:19.944Z,10.8
2023-08-19T12:32:19.162Z,10.1
2023-08-19T12:33:20.287Z,10.6
2023-08-19T12:34:19.835Z,11.1
2023-08-19T12:35:19.652Z,12.0
2023-08-19T12:36:20.287Z,10.5
2023-08-19T12:37:19.166Z,11.3
2023-08-19T12:38:20.067Z,10.6
2023-08-19T12:39:19.736Z,10.0
2023-08-19T12:40:19.627Z,9.9
2023-08-19T12:41:19.402Z,10.2
2023-08-19T12:42:19.238Z,10.7
2023-08-19T12:43:19.388Z,10.5
2023-08-19T12:44:19.433Z,10.7
2023-08-19T12:45:19.894Z,11.5
2023-08-19T12:46:20.420Z,10.1
2023-08-19T12:47:19.918Z,11.1
2023-08-19T12:48:19.991Z,10.7
2023-08-19T12:49:19.632Z,11.1
2023-08-19T12:50:19.769Z,11.5
2023-08-19T12:51:19.965Z,10.4
2023-08-19T12:52:19.840Z,10.6
2023-08-19T12:53:19.281Z,11.3
2023-08-19T12:54:19.880Z,10.3
2023-08-19T12:55:21.497Z,10.9
2023-08-19T12:56:20.128Z,11.6
2023-08-19T12:57:19.374Z,11.4
2023-08-19T12:58:20.001Z,10.5
2023-08-19T12:59:19.348Z,10.3
2023-08-19T13:00:20.478Z,9.6
2023-08-19T13:01:19.605Z,11.1
2023-08-19T13:02:19.408Z,10.8
2023-08-19T13:03:19.437Z,11.1
2023-08-19T13:04:19.667Z,10.5
2023-08-19T13:05:19.585Z,10.6
2023-08-19T13:06:19.260Z,10.7
2023-08-19T13:07:20.169Z,10.6
2023-08-19T13:08:19.797Z,10.8
2023-08-19T13:09:19.649Z,10.8
2023-08-19T13:10:19.539Z,10.8
2023-08-19T13:11:19.304Z,10.4
2023-08-19T13:12:19.525Z,10.5
2023-08-19T13:13:19.320Z,10.6
2023-08-19T13:14:19.153Z,9.4
2023-08-19T13:15:19.470Z,10.3
2023-08-19T13:16:19.165Z,10.3
2023-08-19T13:17:20.226Z,10.4
2023-08-19T13:18:19.230Z,10.4
2023-08-19T13:19:19.971Z,10.5
2023-08-19T13:20:19.913Z,11.1
2023-08-19T13:21:19.140Z,10.9
2023-08-19T13:22:19.825Z,11.7
2023-08-19T13:23:19.228Z,10.7
2023-08-19T13:24:19.936Z,10.5
2023-08-19T13:25:19.261Z,10.6
2023-08-19T13:26:20.003Z,9.9
2023-08-19T13:27:19.781Z,10.4
2023-08-19T13:28:19.109Z,9.7
2023-08-19T13:29:19.330Z,9.7
2023-08-19T13:30:19.667Z,10.2
2023-08-19T13:31:19.751Z,10.9
2023-08-19T13:32:19.144Z,11.0
2023-08-19T13:33:19.865Z,10.2
2023-08-19T13:34:19.275Z,11.1